createdAt,value
2023-05-20T00:02:13.123Z,67.05
2023-05-20T00:04:42.350Z,67.56
2023-05-20T00:07:09.401Z,66.63
2023-05-20T00:09:36.362Z,64.13
2023-05-20T00:12:03.371Z,68.17
2023-05-20T00:14:30.314Z,69.03
2023-05-20T00:16:57.237Z,67.83
2023-05-20T00:19:24.274Z,67.53
2023-05-20T00:21:51.337Z,66.95
2023-05-20T00:24:18.263Z,68.14
2023-05-20T00:26:45.159Z,71.82
2023-05-20T00:29:12.037Z,73.29
2023-05-20T00:31:39.017Z,72.54
2023-05-20T00:34:06.016Z,73.89
2023-05-20T00:36:32.936Z,75.38
2023-05-20T00:39:00.251Z,73.20
2023-05-20T00:41:27.458Z,69.89
2023-05-20T00:43:55.146Z,69.03
2023-05-20T00:46:24.623Z,68.36
2023-05-20T00:48:51.658Z,70.84
2023-05-20T00:51:19.015Z,76.92
2023-05-20T00:53:46.390Z,76.54
2023-05-20T00:56:13.531Z,75.02
2023-05-20T00:58:40.803Z,71.83
2023-05-20T01:01:07.807Z,70.67
2023-05-20T01:03:35.423Z,64.45
2023-05-20T01:06:03.215Z,64.55
2023-05-20T01:08:30.237Z,62.36
2023-05-20T01:11:16.826Z,61.52
2023-05-20T01:13:47.512Z,65.21
2023-05-20T01:16:15.736Z,65.33
2023-05-20T01:18:43.683Z,64.22
2023-05-20T01:21:12.795Z,65.10
2023-05-20T01:23:41.309Z,65.60
2023-05-20T01:26:09.168Z,65.56
2023-05-20T01:28:38.885Z,64.72
2023-05-20T01:31:08.785Z,65.18
2023-05-20T01:33:36.957Z,63.83
2023-05-20T01:36:04.274Z,66.00
2023-05-20T01:38:31.766Z,65.58
2023-05-20T01:40:59.933Z,65.00
2023-05-20T01:43:27.453Z,67.19
2023-05-20T01:45:54.344Z,68.55
2023-05-20T01:48:21.235Z,69.50
2023-05-20T01:50:48.152Z,71.32
2023-05-20T01:53:15.148Z,73.05
2023-05-20T01:55:42.080Z,76.25
2023-05-20T01:58:08.982Z,75.11
2023-05-20T02:00:36.003Z,73.70
2023-05-20T02:03:03.919Z,72.93
2023-05-20T02:05:31.146Z,66.30
2023-05-20T02:07:58.201Z,67.87
2023-05-20T02:10:25.114Z,70.32
2023-05-20T02:12:52.079Z,71.41
2023-05-20T02:15:18.941Z,69.46
2023-05-20T02:17:47.214Z,72.71
2023-05-20T02:20:14.211Z,70.02
2023-05-20T02:22:41.192Z,68.12
2023-05-20T02:25:08.607Z,67.46
2023-05-20T02:27:35.532Z,67.58
2023-05-20T02:30:02.401Z,63.75
2023-05-20T02:32:29.746Z,63.90
2023-05-20T02:34:56.772Z,64.86
2023-05-20T02:37:23.751Z,65.61
2023-05-20T02:39:50.772Z,65.06
2023-05-20T02:42:17.637Z,64.26
2023-05-20T02:44:44.521Z,64.79
2023-05-20T02:47:11.395Z,63.94
2023-05-20T02:49:38.272Z,66.05
2023-05-20T02:52:05.575Z,68.03
2023-05-20T02:54:32.564Z,69.86
2023-05-20T02:56:59.436Z,69.10
2023-05-20T02:59:26.807Z,66.08
2023-05-20T03:01:53.767Z,68.03
2023-05-20T03:04:21.927Z,69.98
2023-05-20T03:06:48.966Z,69.06
2023-05-20T03:09:15.913Z,69.06
2023-05-20T03:11:42.819Z,69.02
2023-05-20T03:14:09.740Z,67.21
2023-05-20T03:16:36.690Z,64.34
2023-05-20T03:19:03.693Z,65.61
2023-05-20T03:21:30.625Z,66.09
2023-05-20T03:23:57.504Z,69.35
2023-05-20T03:26:25.851Z,73.08
2023-05-20T03:28:52.792Z,73.50
2023-05-20T03:31:19.711Z,80.01
2023-05-20T03:33:46.736Z,85.83
2023-05-20T03:36:13.662Z,82.58
2023-05-20T03:38:40.568Z,66.69
2023-05-20T03:41:07.639Z,66.71
2023-05-20T03:43:34.530Z,67.22
2023-05-20T03:46:01.609Z,68.98
2023-05-20T03:48:28.513Z,68.34
2023-05-20T03:50:55.616Z,66.19
2023-05-20T03:53:22.585Z,65.94
2023-05-20T03:55:49.588Z,64.77
2023-05-20T03:58:16.791Z,63.98
2023-05-20T04:00:43.672Z,61.75
2023-05-20T04:03:10.757Z,63.37
2023-05-20T04:05:37.825Z,67.68
2023-05-20T04:08:05.274Z,67.52
2023-05-20T04:10:32.977Z,65.52
2023-05-20T04:13:00.061Z,63.47
2023-05-20T04:15:29.918Z,64.18
2023-05-20T04:17:56.887Z,65.27
2023-05-20T04:20:24.673Z,61.82
2023-05-20T04:22:52.479Z,59.44
2023-05-20T04:25:19.562Z,56.49
2023-05-20T04:27:46.745Z,56.74
2023-05-20T04:30:14.129Z,56.79
2023-05-20T04:32:41.815Z,56.43
2023-05-20T04:35:12.220Z,60.23
2023-05-20T04:37:39.285Z,59.11
2023-05-20T04:40:06.956Z,59.54
2023-05-20T04:42:37.942Z,63.02
2023-05-20T04:45:06.033Z,60.79
2023-05-20T04:47:39.307Z,56.80
2023-05-20T04:50:10.956Z,55.13
2023-05-20T04:52:47.786Z,54.28
2023-05-20T04:55:16.148Z,58.27
2023-05-20T04:57:43.704Z,65.19
2023-05-20T05:00:12.690Z,70.82
2023-05-20T05:02:39.977Z,69.88
2023-05-20T05:05:07.696Z,70.03
2023-05-20T05:07:34.646Z,66.01
2023-05-20T05:10:01.761Z,61.57
2023-05-20T05:12:28.715Z,56.67
2023-05-20T05:14:55.596Z,54.00
2023-05-20T05:17:22.507Z,52.52
2023-05-20T05:19:49.488Z,48.24
2023-05-20T05:22:16.625Z,46.09
2023-05-20T05:24:43.566Z,57.65
2023-05-20T05:27:10.465Z,60.29
2023-05-20T05:29:37.371Z,69.00
2023-05-20T05:32:04.497Z,68.87
2023-05-20T05:34:31.385Z,72.69
2023-05-20T05:36:58.243Z,73.86
2023-05-20T05:39:25.178Z,71.73
2023-05-20T05:41:52.160Z,75.98
2023-05-20T05:44:19.055Z,78.60
2023-05-20T05:46:45.982Z,76.25
2023-05-20T05:49:12.934Z,79.29
2023-05-20T05:51:39.873Z,75.58
2023-05-20T05:54:06.786Z,79.73
2023-05-20T05:56:33.737Z,75.30
2023-05-20T05:59:00.642Z,76.02
2023-05-20T06:01:27.587Z,74.46
2023-05-20T06:03:54.679Z,73.07
2023-05-20T06:06:21.717Z,71.48
2023-05-20T06:08:48.628Z,76.00
2023-05-20T06:11:15.728Z,76.45
2023-05-20T06:13:42.724Z,75.57
2023-05-20T06:16:09.993Z,77.29
2023-05-20T06:18:36.926Z,76.24
2023-05-20T06:21:04.059Z,74.81
2023-05-20T06:23:30.936Z,71.34
2023-05-20T06:25:59.443Z,75.41
2023-05-20T06:28:27.227Z,71.38
2023-05-20T06:30:57.833Z,70.66
2023-05-20T06:33:27.767Z,76.78
2023-05-20T06:35:55.941Z,73.84
2023-05-20T06:38:23.222Z,77.42
2023-05-20T06:40:50.173Z,75.27
2023-05-20T06:43:17.624Z,72.28
2023-05-20T06:45:44.653Z,70.45
2023-05-20T06:48:11.574Z,68.78
2023-05-20T06:50:38.480Z,68.23
2023-05-20T06:53:05.514Z,69.75
2023-05-20T06:55:32.746Z,68.87
2023-05-20T06:58:00.161Z,67.04
2023-05-20T07:00:27.168Z,71.12
2023-05-20T07:02:54.146Z,68.21
2023-05-20T07:05:21.231Z,65.14
2023-05-20T07:07:48.086Z,64.67
2023-05-20T07:10:14.988Z,65.08
2023-05-20T07:12:42.348Z,63.56
2023-05-20T07:15:09.735Z,62.63
2023-05-20T07:17:37.092Z,62.19
2023-05-20T07:20:04.451Z,62.18
2023-05-20T07:22:31.446Z,63.75
2023-05-20T07:24:59.650Z,65.74
2023-05-20T07:27:26.535Z,60.75
2023-05-20T07:29:53.403Z,64.28
2023-05-20T07:32:20.533Z,61.25
2023-05-20T07:34:47.435Z,61.78
2023-05-20T07:37:14.999Z,62.68
2023-05-20T07:39:41.919Z,63.53
2023-05-20T07:42:08.900Z,58.65
2023-05-20T07:44:36.360Z,59.49
2023-05-20T07:47:03.476Z,62.98
2023-05-20T07:49:30.392Z,61.21
2023-05-20T07:51:57.247Z,63.09
2023-05-20T07:54:24.443Z,61.20
2023-05-20T07:56:51.644Z,62.11
2023-05-20T07:59:18.544Z,60.13
2023-05-20T08:01:45.539Z,60.20
2023-05-20T08:04:12.575Z,58.83
2023-05-20T08:06:40.019Z,60.11
2023-05-20T08:09:07.455Z,63.96
2023-05-20T08:11:34.393Z,57.15
2023-05-20T08:14:02.270Z,53.92
2023-05-20T08:16:29.199Z,55.18
2023-05-20T08:18:56.221Z,54.29
2023-05-20T08:21:23.127Z,60.84
2023-05-20T08:23:50.031Z,56.01
2023-05-20T08:26:17.104Z,59.82
2023-05-20T08:28:44.077Z,61.59
2023-05-20T08:31:11.054Z,60.38
2023-05-20T08:33:38.022Z,58.39
2023-05-20T08:36:05.016Z,58.50
2023-05-20T08:38:31.904Z,57.48
2023-05-20T08:40:58.787Z,59.47
2023-05-20T08:43:26.663Z,57.73
2023-05-20T08:45:53.764Z,56.40
2023-05-20T08:48:23.520Z,56.20
2023-05-20T08:50:51.988Z,53.48
2023-05-20T08:53:19.721Z,58.28
2023-05-20T08:55:49.148Z,57.88
2023-05-20T08:58:17.921Z,61.98
2023-05-20T09:00:44.873Z,60.58
2023-05-20T09:03:11.850Z,58.94
2023-05-20T09:05:38.833Z,59.59
2023-05-20T09:08:09.194Z,56.01
2023-05-20T09:10:37.372Z,59.28
2023-05-20T09:13:06.954Z,61.32
2023-05-20T09:15:35.213Z,63.69
2023-05-20T09:18:07.263Z,61.32
2023-05-20T09:20:37.507Z,59.83
2023-05-20T09:23:06.533Z,64.38
2023-05-20T09:25:34.137Z,63.52
2023-05-20T09:28:01.528Z,64.02
2023-05-20T09:30:28.596Z,65.62
2023-05-20T09:32:57.022Z,64.96
2023-05-20T09:35:24.936Z,61.54
2023-05-20T09:37:57.313Z,58.01
2023-05-20T09:40:29.862Z,57.84
2023-05-20T09:43:11.373Z,56.70
2023-05-20T09:45:39.094Z,56.32
2023-05-20T09:48:06.423Z,57.64
2023-05-20T09:50:33.521Z,57.42
2023-05-20T09:53:04.115Z,59.48
2023-05-20T09:55:32.208Z,62.86
2023-05-20T09:58:02.752Z,58.01
2023-05-20T10:00:29.995Z,54.21
2023-05-20T10:02:57.469Z,58.18
2023-05-20T10:05:36.159Z,55.66
2023-05-20T10:08:24.100Z,59.40
2023-05-20T10:11:17.610Z,54.72
2023-05-20T10:14:05.941Z,52.98
2023-05-20T10:16:51.183Z,48.96
2023-05-20T10:19:31.361Z,52.42
2023-05-20T10:21:59.150Z,55.16
2023-05-20T10:24:36.370Z,50.29
2023-05-20T10:27:05.057Z,48.42
2023-05-20T10:29:55.861Z,50.45
2023-05-20T10:32:31.728Z,48.58
2023-05-20T10:35:05.439Z,50.54
2023-05-20T10:37:34.644Z,50.04
2023-05-20T10:40:11.795Z,49.60
2023-05-20T10:42:38.878Z,48.60
2023-05-20T10:45:07.313Z,51.48
2023-05-20T10:47:35.321Z,51.04
2023-05-20T10:50:02.970Z,50.72
2023-05-20T10:52:34.288Z,49.48
2023-05-20T10:55:01.893Z,49.68
2023-05-20T10:57:29.578Z,49.67
2023-05-20T10:59:57.094Z,50.28
2023-05-20T11:02:27.349Z,52.92
2023-05-20T11:04:56.665Z,51.61
2023-05-20T11:07:28.193Z,54.85
2023-05-20T11:09:59.102Z,51.70
2023-05-20T11:12:27.487Z,49.71
2023-05-20T11:14:54.624Z,50.34
2023-05-20T11:17:21.629Z,50.30
2023-05-20T11:19:48.869Z,50.79
2023-05-20T11:22:16.133Z,50.36
2023-05-20T11:24:43.054Z,49.98
2023-05-20T11:27:09.983Z,50.36
2023-05-20T11:29:37.446Z,48.29
2023-05-20T11:32:04.762Z,46.56
2023-05-20T11:34:36.570Z,46.20
2023-05-20T11:37:07.956Z,46.18
2023-05-20T11:39:34.888Z,46.21
2023-05-20T11:42:01.793Z,45.01
2023-05-20T11:44:28.703Z,46.08
2023-05-20T11:47:02.282Z,46.18
2023-05-20T11:49:29.417Z,42.84
2023-05-20T11:51:57.191Z,42.48
2023-05-20T11:54:25.215Z,44.18
2023-05-20T11:56:52.274Z,46.99
2023-05-20T11:59:19.152Z,43.44
2023-05-20T12:01:46.094Z,47.22
2023-05-20T12:04:16.665Z,46.71
2023-05-20T12:06:44.314Z,49.34
2023-05-20T12:09:11.512Z,48.71
2023-05-20T12:11:41.295Z,46.90
2023-05-20T12:14:09.241Z,48.48
2023-05-20T12:16:37.493Z,45.62
2023-05-20T12:19:04.842Z,47.22
2023-05-20T12:21:32.202Z,46.90
2023-05-20T12:23:59.903Z,44.97
2023-05-20T12:26:28.074Z,42.77
2023-05-20T12:28:55.325Z,48.41
2023-05-20T12:31:22.342Z,46.72
2023-05-20T12:33:49.300Z,47.12
2023-05-20T12:36:16.476Z,46.93
2023-05-20T12:38:43.506Z,47.26
2023-05-20T12:41:10.461Z,47.06
2023-05-20T12:43:37.637Z,48.52
2023-05-20T12:46:05.087Z,42.31
2023-05-20T12:48:32.134Z,41.03
2023-05-20T12:50:59.046Z,40.91
2023-05-20T12:53:25.957Z,41.18
2023-05-20T12:55:52.885Z,41.72
2023-05-20T12:58:20.080Z,41.26
2023-05-20T13:00:46.996Z,40.50
2023-05-20T13:03:14.028Z,41.37
2023-05-20T13:05:41.098Z,40.93
2023-05-20T13:08:09.199Z,41.56
2023-05-20T13:10:36.602Z,40.10
2023-05-20T13:13:03.682Z,40.89
2023-05-20T13:15:30.595Z,40.72
2023-05-20T13:17:57.692Z,40.04
2023-05-20T13:20:24.626Z,41.08
2023-05-20T13:22:51.636Z,40.52
2023-05-20T13:25:18.599Z,38.30
2023-05-20T13:27:45.597Z,37.34
2023-05-20T13:30:12.772Z,38.41
2023-05-20T13:32:39.687Z,39.04
2023-05-20T13:35:07.272Z,39.46
2023-05-20T13:37:34.147Z,40.72
2023-05-20T13:40:01.066Z,39.52
2023-05-20T13:42:28.121Z,39.54
2023-05-20T13:44:55.034Z,40.82
2023-05-20T13:47:21.948Z,41.28
2023-05-20T13:49:48.876Z,40.17
2023-05-20T13:52:15.837Z,41.10
2023-05-20T13:54:44.858Z,40.09
2023-05-20T13:57:11.746Z,41.67
2023-05-20T13:59:38.819Z,41.30
2023-05-20T14:02:06.101Z,41.47
2023-05-20T14:04:38.185Z,40.02
2023-05-20T14:07:07.658Z,40.23
2023-05-20T14:09:36.535Z,43.15
2023-05-20T14:12:05.221Z,40.82
2023-05-20T14:14:32.169Z,41.14
2023-05-20T14:16:59.061Z,40.30
2023-05-20T14:19:27.168Z,40.77
2023-05-20T14:21:54.187Z,39.31
2023-05-20T14:24:23.436Z,40.96
2023-05-20T14:26:50.744Z,38.89
2023-05-20T14:29:17.938Z,42.55
2023-05-20T14:31:45.226Z,40.45
2023-05-20T14:34:12.256Z,39.06
2023-05-20T14:36:39.518Z,40.95
2023-05-20T14:39:06.420Z,40.02
2023-05-20T14:41:33.303Z,42.29
2023-05-20T14:44:00.195Z,41.53
2023-05-20T14:46:27.308Z,42.19
2023-05-20T14:48:54.261Z,41.71
2023-05-20T14:51:21.202Z,42.95
2023-05-20T14:53:48.102Z,42.42
2023-05-20T14:56:14.972Z,43.60
2023-05-20T14:58:42.144Z,40.89
2023-05-20T15:01:09.346Z,43.34
2023-05-20T15:03:36.329Z,41.89
2023-05-20T15:06:03.293Z,39.60
2023-05-20T15:08:30.167Z,38.48
2023-05-20T15:10:57.134Z,41.11
2023-05-20T15:13:24.098Z,40.04
2023-05-20T15:15:51.162Z,39.37
2023-05-20T15:18:18.122Z,38.71
2023-05-20T15:20:45.183Z,39.29
2023-05-20T15:23:12.406Z,42.82
2023-05-20T15:25:39.333Z,41.87
2023-05-20T15:28:06.323Z,43.03
2023-05-20T15:30:33.436Z,41.73
2023-05-20T15:33:01.336Z,43.28
2023-05-20T15:35:28.797Z,42.58
2023-05-20T15:37:55.744Z,40.40
2023-05-20T15:40:22.785Z,40.54
2023-05-20T15:42:49.659Z,41.39
2023-05-20T15:45:16.640Z,41.67
2023-05-20T15:47:43.599Z,42.46
2023-05-20T15:50:11.507Z,41.78
2023-05-20T15:52:38.802Z,42.61
2023-05-20T15:55:06.385Z,41.73
2023-05-20T15:57:33.340Z,38.73
2023-05-20T16:00:00.394Z,40.45
2023-05-20T16:02:27.500Z,40.71
2023-05-20T16:04:54.630Z,41.06
2023-05-20T16:07:24.592Z,42.56
2023-05-20T16:09:51.656Z,42.16
2023-05-20T16:12:18.619Z,44.13
2023-05-20T16:14:45.855Z,43.26
2023-05-20T16:17:12.881Z,43.41
2023-05-20T16:19:39.806Z,42.52
2023-05-20T16:22:06.829Z,42.73
2023-05-20T16:24:33.668Z,43.54
2023-05-20T16:27:00.623Z,45.49
2023-05-20T16:29:27.567Z,44.23
2023-05-20T16:31:54.509Z,43.17
2023-05-20T16:34:21.493Z,43.07
2023-05-20T16:36:48.509Z,42.61
2023-05-20T16:39:16.193Z,43.03
2023-05-20T16:41:43.398Z,44.45
2023-05-20T16:44:10.809Z,44.61
2023-05-20T16:46:37.699Z,45.15
2023-05-20T16:49:04.681Z,46.48
2023-05-20T16:51:31.566Z,45.84
2023-05-20T16:53:58.412Z,48.02
2023-05-20T16:56:25.287Z,46.95
2023-05-20T16:58:53.331Z,47.95
2023-05-20T17:01:21.616Z,48.83
2023-05-20T17:03:49.033Z,49.05
2023-05-20T17:06:23.929Z,50.53
2023-05-20T17:08:51.135Z,48.71
2023-05-20T17:11:18.059Z,50.60
2023-05-20T17:13:44.986Z,49.10
2023-05-20T17:16:12.338Z,49.54
2023-05-20T17:18:39.273Z,50.04
2023-05-20T17:21:06.243Z,50.27
2023-05-20T17:23:33.097Z,49.40
2023-05-20T17:26:00.018Z,49.87
2023-05-20T17:28:26.917Z,50.61
2023-05-20T17:30:53.823Z,50.52
2023-05-20T17:33:21.008Z,48.56
2023-05-20T17:35:48.059Z,50.25
2023-05-20T17:38:14.910Z,50.52
2023-05-20T17:40:41.798Z,49.05
2023-05-20T17:43:08.716Z,49.71
2023-05-20T17:45:35.599Z,49.83
2023-05-20T17:48:08.214Z,51.08
2023-05-20T17:50:37.788Z,49.56
2023-05-20T17:53:04.778Z,51.35
2023-05-20T17:55:32.978Z,50.78
2023-05-20T17:58:02.011Z,50.40
2023-05-20T18:00:29.054Z,50.50
2023-05-20T18:02:58.830Z,50.57
2023-05-20T18:05:26.660Z,50.32
2023-05-20T18:07:53.596Z,50.53
2023-05-20T18:10:20.783Z,49.75
2023-05-20T18:12:47.702Z,49.23
2023-05-20T18:15:14.621Z,50.36
2023-05-20T18:17:41.599Z,51.53
2023-05-20T18:20:09.875Z,50.97
2023-05-20T18:22:36.819Z,51.15
2023-05-20T18:25:03.957Z,51.42
2023-05-20T18:27:32.011Z,50.84
2023-05-20T18:29:59.202Z,50.77
2023-05-20T18:32:28.620Z,50.36
2023-05-20T18:34:55.615Z,52.38
2023-05-20T18:37:22.532Z,53.30
2023-05-20T18:39:49.472Z,53.42
2023-05-20T18:42:16.349Z,53.63
2023-05-20T18:44:43.606Z,54.32
2023-05-20T18:47:11.272Z,53.03
2023-05-20T18:49:38.153Z,53.13
2023-05-20T18:52:05.247Z,51.69
2023-05-20T18:54:32.122Z,54.68
2023-05-20T18:56:59.037Z,55.00
2023-05-20T18:59:26.131Z,53.74
2023-05-20T19:01:53.076Z,55.59
2023-05-20T19:04:19.928Z,57.93
2023-05-20T19:06:48.183Z,58.10
2023-05-20T19:09:15.071Z,57.43
2023-05-20T19:11:41.976Z,56.44
2023-05-20T19:14:08.927Z,56.19
2023-05-20T19:16:36.024Z,56.67
2023-05-20T19:19:03.147Z,56.28
2023-05-20T19:21:31.497Z,56.80
2023-05-20T19:23:58.496Z,55.01
2023-05-20T19:26:26.631Z,57.29
2023-05-20T19:28:53.525Z,59.34
2023-05-20T19:31:23.299Z,58.11
2023-05-20T19:33:51.005Z,57.67
2023-05-20T19:36:17.941Z,59.97
2023-05-20T19:38:44.821Z,62.58
2023-05-20T19:41:12.783Z,59.85
2023-05-20T19:43:40.089Z,59.21
2023-05-20T19:46:07.117Z,59.14
2023-05-20T19:48:34.328Z,56.70
2023-05-20T19:51:01.704Z,57.85
2023-05-20T19:53:28.650Z,60.44
2023-05-20T19:55:55.701Z,60.34
2023-05-20T19:58:22.984Z,62.14
2023-05-20T20:00:49.871Z,59.60
2023-05-20T20:03:16.769Z,57.93
2023-05-20T20:05:43.699Z,56.55
2023-05-20T20:08:10.937Z,54.89
2023-05-20T20:10:37.856Z,56.32
2023-05-20T20:13:04.736Z,55.55
2023-05-20T20:15:32.231Z,56.45
2023-05-20T20:17:59.526Z,55.48
2023-05-20T20:20:27.031Z,55.82
2023-05-20T20:22:54.125Z,57.73
2023-05-20T20:25:21.167Z,54.57
2023-05-20T20:27:48.638Z,55.68
2023-05-20T20:30:15.846Z,55.71
2023-05-20T20:32:42.883Z,55.71
2023-05-20T20:35:11.018Z,53.97
2023-05-20T20:37:38.541Z,58.19
2023-05-20T20:40:08.175Z,60.03
2023-05-20T20:42:35.115Z,68.30
2023-05-20T20:45:02.537Z,70.21
2023-05-20T20:47:29.752Z,65.90
2023-05-20T20:49:56.973Z,67.21
2023-05-20T20:52:23.886Z,68.53
2023-05-20T20:54:50.783Z,69.88
2023-05-20T20:57:17.706Z,62.13
2023-05-20T20:59:47.977Z,57.63
2023-05-20T21:02:15.194Z,56.87
2023-05-20T21:04:42.907Z,57.59
2023-05-20T21:07:09.899Z,57.19
2023-05-20T21:09:36.828Z,58.44
2023-05-20T21:12:06.928Z,58.01
2023-05-20T21:14:33.905Z,57.58
2023-05-20T21:17:01.114Z,57.36
2023-05-20T21:19:28.472Z,57.14
2023-05-20T21:21:55.736Z,57.85
2023-05-20T21:24:22.575Z,58.08
2023-05-20T21:26:49.431Z,57.05
2023-05-20T21:29:16.380Z,59.25
2023-05-20T21:31:43.262Z,59.11
2023-05-20T21:34:10.134Z,59.90
2023-05-20T21:36:37.129Z,60.30
2023-05-20T21:39:04.210Z,58.54
2023-05-20T21:41:31.139Z,58.17
2023-05-20T21:43:58.055Z,56.59
2023-05-20T21:46:25.097Z,56.00
2023-05-20T21:48:52.054Z,55.53
2023-05-20T21:51:18.943Z,57.75
2023-05-20T21:53:46.033Z,57.26
2023-05-20T21:56:12.952Z,58.17
2023-05-20T21:58:41.827Z,59.72
2023-05-20T22:01:12.114Z,77.24
2023-05-20T22:03:40.224Z,72.17
2023-05-20T22:06:07.436Z,74.64
2023-05-20T22:08:34.350Z,72.33
2023-05-20T22:11:05.553Z,66.95
2023-05-20T22:13:33.320Z,70.20
2023-05-20T22:16:01.594Z,65.97
2023-05-20T22:18:29.316Z,60.98
2023-05-20T22:20:59.254Z,61.97
2023-05-20T22:23:26.945Z,60.18
2023-05-20T22:25:55.137Z,60.42
2023-05-20T22:28:22.124Z,62.69
2023-05-20T22:30:48.984Z,66.69
2023-05-20T22:33:15.882Z,68.71
2023-05-20T22:35:42.779Z,65.23
2023-05-20T22:38:09.692Z,64.67
2023-05-20T22:40:36.630Z,65.14
2023-05-20T22:43:03.553Z,61.57
2023-05-20T22:45:30.754Z,61.85
2023-05-20T22:47:57.724Z,61.10
2023-05-20T22:50:26.471Z,60.41
2023-05-20T22:52:53.390Z,59.31
2023-05-20T22:55:20.310Z,58.71
2023-05-20T22:57:47.201Z,56.92
2023-05-20T23:00:15.611Z,55.41
2023-05-20T23:02:42.500Z,59.69
2023-05-20T23:05:09.515Z,58.76
2023-05-20T23:07:36.411Z,58.67
2023-05-20T23:10:03.565Z,61.51
2023-05-20T23:12:30.417Z,65.75
2023-05-20T23:14:57.294Z,63.25
2023-05-20T23:17:24.338Z,62.94
2023-05-20T23:19:51.377Z,57.04
2023-05-20T23:22:18.656Z,55.98
2023-05-20T23:24:45.609Z,72.32
2023-05-20T23:27:12.512Z,67.15
2023-05-20T23:29:39.901Z,69.37
2023-05-20T23:32:07.092Z,64.03
2023-05-20T23:34:34.155Z,58.92
2023-05-20T23:37:01.096Z,57.10
2023-05-20T23:39:27.995Z,57.11
2023-05-20T23:41:54.864Z,58.45
2023-05-20T23:44:21.744Z,59.39
2023-05-20T23:46:49.782Z,59.97
2023-05-20T23:49:18.645Z,60.13
2023-05-20T23:51:45.704Z,59.27
2023-05-20T23:54:16.518Z,61.19
2023-05-20T23:56:43.543Z,61.74
2023-05-20T23:59:10.651Z,61.75
